Airfield :
LOGIN :

Register | Disclaimer

   EN    FR    IT 

 










Legend :    VFR   Marginal VFR   IFR   Intensive IFR   Very Intensive IFR
Visi :
Ceiling :
>= 8 km
>= 3000ft
5 to 8 km
1000 to 3000 ft
1500m to 5 km
500 to 1000 ft
800 to 1500m
200 to 500 ft
< 800m
< 200 ft
Symbols :   Thunderstorms  Fog  Heavy snow  Heavy precipitations  Wind > 20 kt
SIGMETs :     Misc.  Thunderstorms  Icing  Turbulence  Mountain Waves  Volcanic Ashes







- Airport Elevation : 1966 ft
- IATA code : SGE


EDGS - Siegerland

CURRENT METAR :
  • 211620Z 23003KT 9999 SCT004 BKN030 M01/M01 Q1015

EXPIRED METARs :
  • 211550Z VRB03KT 9999 BKN004 M01/M01 Q1015
  • 211520Z 29006KT 8000 SCT004 BKN014 M01/M02 Q1015 RESN
  • 211450Z 29005KT 260V330 1100 R31/1300VP2000D SN BR OVC003 M01/M01 Q1015
  • 211420Z 29006KT 220V310 4000 -SN BR SCT003 BKN005 M01/M02 Q1014
  • 211350Z 29006KT 6000 BKN003 M01/M02 Q1014
  • 211320Z 28007KT 2500 -SN BR OVC003 M01/M02 Q1014

TAF TAF EDGS
Valid from the 21 at 15:00 until the 22 at 00:00 UTC


211400Z 2115/2124 28005KT 6000 SCT003 BKN020
TEMPO 2115/2118 BKN003
BECMG 2118/2121 16008KT 2000 BR BKN008
TEMPO 2122/2124 0600 -SN FG BKN001
No reported NOTAMs for that airfield.



MET'MAP, your aeronautical weather chart ! - Copyright ORBIFLY December 2007 - Disclaimer

ORBIFLY MET'MAP TEAM :

Programming & Development : Alexandra Zaïnal
Concept & Development : Baudouin d'Aumeries
Co-Development & Prog : Marc-Olivier Méhu
Technical & hardware support : Manuel Goepfert

Contact : metmap@orbifly.com




SOURCES & CREDITS :

   NOAA